Accueil
METAR-TAF:

METAR-TAF

Aéroports :

Aéroport international d'Exeter

Exeter, Angleterre

latitude: 50-44N, longitude: 003-25W, altitude: 30 m

Observation

Le bulletin a été fait il y a 1 heure et 32 minutes, à 02:20 UTC
Vent 7 kt de nord-est
Température 5°C
Humidité 87%
Pression 1023 hPa
Visibilité: 9000 m
Quelques nuages à une hauteur de 1500 ft
Nuages épars à une hauteur de 3000 ft

METAR: EGTE 030220Z 04007KT 9000 FEW015 SCT030 05/03 Q1023

Heure: 03:52 (03:52 UTC)

Prévision

Le bulletin a été fait il y a 4 heures et 57 minutes, à 22:55 UTC
Prévision valable du 03 à 00 UTC au 03 à 04 UTC
Vent 7 kt de nord/nord-est
Visibilité 10 km ou plus
Quelques nuages à une hauteur de 2000 ft
Probabilité 30% :
Temporairement
du 03 à 00 UTC au 03 à 04 UTC
Visibilité: 6000 m
Nuages fragmentés à une hauteur de 800 ft

TAF: EGTE 022255Z 0300/0304 02007KT 9999 FEW020 PROB30 TEMPO 0300/0304 6000 BKN008

Observations et prévisions météorologiques de plus de 4000 aéroports (messages METAR et TAF).

Les stations disponibles sont représentées par des disques jaunes et rouges sur la carte.

Passer la souris dessus pour voir le nom de la station.

Cliquer dessus pour voir les observations et prévisions météorologiques.

Pour changer de carte: cliquez sur les boutons verts avec une croix noire pour zoomer, sur le bouton vert avec un tiret pour effectuer un zoom arrière, ou sur les flèches vertes pour les cartes adjacentes.


METAR-TAF: